createdAt,value
2023-02-17T00:01:25.513Z,100.00
2023-02-17T00:03:53.838Z,100.00
2023-02-17T00:06:24.408Z,100.00
2023-02-17T00:08:52.779Z,100.00
2023-02-17T00:11:20.778Z,100.00
2023-02-17T00:13:48.645Z,100.00
2023-02-17T00:16:21.489Z,100.00
2023-02-17T00:19:00.765Z,100.00
2023-02-17T00:21:32.318Z,100.00
2023-02-17T00:24:00.529Z,100.00
2023-02-17T00:26:28.372Z,100.00
2023-02-17T00:28:57.930Z,100.00
2023-02-17T00:31:25.655Z,100.00
2023-02-17T00:33:56.041Z,99.85
2023-02-17T00:36:24.244Z,99.41
2023-02-17T00:38:53.909Z,99.41
2023-02-17T00:41:23.224Z,98.83
2023-02-17T00:43:51.074Z,98.54
2023-02-17T00:46:19.245Z,98.25
2023-02-17T00:48:48.202Z,97.88
2023-02-17T00:51:17.374Z,97.85
2023-02-17T00:53:45.896Z,97.89
2023-02-17T00:56:14.283Z,97.60
2023-02-17T00:58:42.514Z,97.56
2023-02-17T01:01:11.372Z,97.43
2023-02-17T01:03:42.328Z,96.81
2023-02-17T01:06:18.564Z,96.42
2023-02-17T01:08:46.450Z,96.12
2023-02-17T01:11:19.356Z,95.72
2023-02-17T01:13:47.350Z,95.70
2023-02-17T01:16:42.059Z,94.93
2023-02-17T01:19:14.198Z,94.83
2023-02-17T01:21:42.282Z,94.65
2023-02-17T01:24:13.320Z,94.35
2023-02-17T01:26:41.239Z,94.40
2023-02-17T01:29:09.274Z,94.65
2023-02-17T01:31:37.420Z,94.23
2023-02-17T01:34:05.683Z,93.94
2023-02-17T01:36:33.593Z,94.04
2023-02-17T01:39:01.719Z,94.08
2023-02-17T01:41:29.909Z,93.61
2023-02-17T01:44:21.731Z,93.63
2023-02-17T01:46:51.836Z,93.46
2023-02-17T01:49:22.522Z,93.41
2023-02-17T01:51:59.965Z,93.21
2023-02-17T01:54:33.475Z,93.02
2023-02-17T01:57:03.122Z,93.29
2023-02-17T01:59:32.077Z,93.28
2023-02-17T02:02:03.578Z,93.74
2023-02-17T02:04:36.067Z,93.87
2023-02-17T02:07:06.157Z,93.44
2023-02-17T02:09:40.993Z,93.42
2023-02-17T02:12:30.064Z,93.71
2023-02-17T02:15:06.048Z,93.11
2023-02-17T02:18:04.642Z,93.12
2023-02-17T02:21:02.801Z,93.27
2023-02-17T02:23:54.187Z,93.16
2023-02-17T02:29:26.273Z,92.72
2023-02-17T02:32:09.110Z,92.88
2023-02-17T02:34:57.687Z,92.99
2023-02-17T02:37:32.908Z,92.48
2023-02-17T02:40:06.758Z,93.00
2023-02-17T02:42:37.125Z,92.77
2023-02-17T02:45:10.670Z,92.58
2023-02-17T02:47:49.858Z,92.04
2023-02-17T02:50:44.927Z,92.10
2023-02-17T02:53:38.591Z,91.66
2023-02-17T02:56:15.116Z,91.65
2023-02-17T02:59:22.009Z,92.04
2023-02-17T03:02:14.008Z,92.12
2023-02-17T03:05:06.316Z,92.37
2023-02-17T03:07:47.496Z,92.94
2023-02-17T03:10:16.234Z,92.87
2023-02-17T03:12:44.314Z,92.77
2023-02-17T03:15:26.729Z,92.56
2023-02-17T03:17:58.081Z,93.15
2023-02-17T03:20:32.939Z,93.03
2023-02-17T03:23:00.683Z,93.41
2023-02-17T03:25:30.192Z,93.03
2023-02-17T03:27:58.239Z,93.23
2023-02-17T03:30:26.695Z,93.58
2023-02-17T03:32:54.543Z,93.58
2023-02-17T03:35:22.469Z,93.63
2023-02-17T03:37:50.359Z,93.84
2023-02-17T03:40:18.461Z,94.29
2023-02-17T03:42:46.366Z,94.22
2023-02-17T03:45:14.428Z,94.65
2023-02-17T03:47:42.123Z,95.41
2023-02-17T03:50:10.400Z,95.71
2023-02-17T03:52:38.173Z,95.89
2023-02-17T03:55:06.377Z,96.07
2023-02-17T03:57:34.862Z,96.38
2023-02-17T04:00:04.513Z,96.35
2023-02-17T04:02:43.695Z,96.57
2023-02-17T04:05:12.033Z,96.80
2023-02-17T04:07:39.840Z,97.05
2023-02-17T04:10:09.505Z,97.24
2023-02-17T04:12:37.418Z,97.29
2023-02-17T04:15:05.696Z,97.49
2023-02-17T04:17:33.476Z,97.96
2023-02-17T04:20:01.378Z,98.17
2023-02-17T04:22:29.354Z,98.45
2023-02-17T04:24:57.281Z,98.82
2023-02-17T04:27:24.992Z,99.35
2023-02-17T04:29:53.052Z,99.71
2023-02-17T04:32:20.738Z,99.80
2023-02-17T04:34:48.682Z,100.00
2023-02-17T04:37:16.389Z,100.00
2023-02-17T04:39:44.391Z,100.00
2023-02-17T04:42:12.065Z,100.00
2023-02-17T04:44:39.978Z,100.00
2023-02-17T04:47:07.678Z,100.00
2023-02-17T04:49:35.636Z,100.00
2023-02-17T04:52:03.448Z,100.00
2023-02-17T04:54:31.394Z,100.00
2023-02-17T04:56:59.044Z,100.00
2023-02-17T04:59:27.102Z,100.00
2023-02-17T05:01:54.742Z,100.00
2023-02-17T05:04:22.848Z,100.00
2023-02-17T05:06:50.594Z,100.00
2023-02-17T05:09:18.659Z,100.00
2023-02-17T05:11:46.370Z,100.00
2023-02-17T05:14:14.696Z,100.00
2023-02-17T05:16:42.480Z,100.00
2023-02-17T05:19:10.452Z,100.00
2023-02-17T05:21:38.296Z,100.00
2023-02-17T05:24:06.514Z,100.00
2023-02-17T05:26:34.390Z,100.00
2023-02-17T05:29:02.412Z,100.00
2023-02-17T05:31:30.403Z,100.00
2023-02-17T05:33:58.567Z,100.00
2023-02-17T05:36:26.291Z,100.00
2023-02-17T05:38:54.396Z,100.00
2023-02-17T05:41:22.372Z,100.00
2023-02-17T05:43:50.343Z,100.00
2023-02-17T05:46:18.125Z,100.00
2023-02-17T05:48:46.312Z,100.00
2023-02-17T05:51:17.190Z,100.00
2023-02-17T05:53:45.432Z,100.00
2023-02-17T05:56:13.145Z,100.00
2023-02-17T05:58:41.079Z,100.00
2023-02-17T06:01:13.216Z,100.00
2023-02-17T06:03:41.464Z,100.00
2023-02-17T06:06:09.273Z,100.00
2023-02-17T06:08:37.491Z,100.00
2023-02-17T06:11:05.340Z,100.00
2023-02-17T06:13:33.653Z,100.00
2023-02-17T06:16:01.519Z,100.00
2023-02-17T06:18:30.082Z,100.00
2023-02-17T06:20:58.693Z,100.00
2023-02-17T06:23:27.656Z,100.00
2023-02-17T06:25:55.665Z,100.00
2023-02-17T06:28:23.670Z,100.00
2023-02-17T06:30:51.499Z,100.00
2023-02-17T06:33:19.610Z,100.00
2023-02-17T06:35:51.945Z,100.00
2023-02-17T06:38:20.499Z,100.00
2023-02-17T06:40:48.286Z,100.00
2023-02-17T06:43:16.313Z,100.00
2023-02-17T06:45:44.212Z,100.00
2023-02-17T06:48:12.446Z,100.00
2023-02-17T06:50:40.312Z,100.00
2023-02-17T06:53:08.558Z,100.00
2023-02-17T06:55:37.341Z,100.00
2023-02-17T06:58:05.430Z,100.00
2023-02-17T07:00:33.202Z,100.00
2023-02-17T07:03:01.357Z,100.00
2023-02-17T07:05:29.248Z,100.00
2023-02-17T07:08:00.293Z,100.00
2023-02-17T07:10:28.055Z,100.00
2023-02-17T07:12:56.035Z,100.00
2023-02-17T07:15:23.725Z,100.00
2023-02-17T07:17:51.685Z,100.00
2023-02-17T07:20:19.538Z,100.00
2023-02-17T07:22:47.537Z,100.00
2023-02-17T07:25:15.309Z,100.00
2023-02-17T07:27:43.356Z,100.00
2023-02-17T07:30:11.675Z,100.00
2023-02-17T07:32:39.725Z,100.00
2023-02-17T07:35:07.583Z,99.81
2023-02-17T07:37:35.758Z,99.30
2023-02-17T07:40:04.231Z,98.85
2023-02-17T07:42:32.274Z,97.66
2023-02-17T07:45:00.024Z,96.62
2023-02-17T07:47:28.055Z,96.73
2023-02-17T07:49:55.969Z,96.42
2023-02-17T07:52:23.942Z,95.84
2023-02-17T07:54:51.707Z,94.85
2023-02-17T07:57:19.688Z,94.75
2023-02-17T07:59:48.208Z,94.62
2023-02-17T08:02:16.470Z,94.56
2023-02-17T08:04:44.756Z,93.87
2023-02-17T08:07:12.782Z,93.82
2023-02-17T08:09:59.234Z,93.31
2023-02-17T08:12:45.844Z,93.09
2023-02-17T08:15:13.812Z,93.10
2023-02-17T08:17:41.929Z,92.89
2023-02-17T08:20:10.114Z,92.58
2023-02-17T08:22:38.532Z,91.94
2023-02-17T08:25:06.552Z,91.55
2023-02-17T08:27:34.815Z,91.78
2023-02-17T08:30:02.752Z,91.61
2023-02-17T08:32:30.802Z,91.26
2023-02-17T08:34:58.946Z,91.19
2023-02-17T08:37:27.215Z,90.68
2023-02-17T08:39:54.970Z,89.23
2023-02-17T08:42:23.417Z,89.19
2023-02-17T08:44:51.367Z,88.76
2023-02-17T08:47:19.478Z,88.43
2023-02-17T08:49:47.204Z,88.31
2023-02-17T08:52:15.697Z,87.89
2023-02-17T08:54:43.398Z,88.22
2023-02-17T08:57:11.531Z,88.06
2023-02-17T08:59:39.278Z,87.78
2023-02-17T09:02:07.480Z,87.96
2023-02-17T09:04:35.245Z,87.26
2023-02-17T09:07:03.401Z,86.51
2023-02-17T09:09:31.752Z,86.18
2023-02-17T09:11:59.902Z,85.94
2023-02-17T09:14:28.054Z,85.79
2023-02-17T09:16:56.694Z,85.26
2023-02-17T09:19:25.032Z,84.81
2023-02-17T09:21:53.917Z,84.51
2023-02-17T09:24:21.566Z,84.01
2023-02-17T09:26:49.586Z,83.89
2023-02-17T09:29:17.306Z,83.85
2023-02-17T09:31:46.165Z,83.40
2023-02-17T09:34:15.283Z,82.85
2023-02-17T09:36:43.871Z,83.02
2023-02-17T09:39:14.008Z,83.05
2023-02-17T09:41:52.099Z,83.44
2023-02-17T09:44:24.738Z,83.26
2023-02-17T09:47:16.271Z,83.83
2023-02-17T09:50:06.734Z,84.14
2023-02-17T09:52:49.194Z,84.36
2023-02-17T09:55:29.974Z,84.55
2023-02-17T09:58:13.299Z,84.56
2023-02-17T10:00:46.598Z,83.84
2023-02-17T10:03:33.655Z,83.83
2023-02-17T10:06:27.666Z,83.43
2023-02-17T10:08:59.112Z,83.45
2023-02-17T10:11:40.417Z,83.51
2023-02-17T10:14:28.999Z,83.70
2023-02-17T10:17:23.497Z,84.21
2023-02-17T10:19:54.894Z,84.40
2023-02-17T10:22:24.460Z,84.65
2023-02-17T10:24:53.428Z,84.82
2023-02-17T10:27:39.558Z,84.65
2023-02-17T10:30:19.730Z,84.95
2023-02-17T10:33:01.744Z,85.40
2023-02-17T10:35:38.841Z,86.20
2023-02-17T10:38:34.825Z,87.17
2023-02-17T10:41:05.991Z,88.08
2023-02-17T10:43:34.536Z,89.32
2023-02-17T10:46:08.245Z,90.57
2023-02-17T10:48:40.925Z,91.27
2023-02-17T10:51:13.429Z,91.74
2023-02-17T10:53:44.397Z,92.15
2023-02-17T10:56:15.278Z,92.15
2023-02-17T10:59:06.591Z,92.79
2023-02-17T11:01:36.472Z,93.11
2023-02-17T11:04:08.510Z,93.14
2023-02-17T11:06:54.938Z,92.97
2023-02-17T11:09:28.902Z,92.87
2023-02-17T11:12:04.582Z,92.91
2023-02-17T11:14:33.803Z,93.32
2023-02-17T11:17:15.007Z,94.04
2023-02-17T11:19:42.761Z,94.33
2023-02-17T11:22:31.019Z,94.07
2023-02-17T11:25:00.778Z,94.44
2023-02-17T11:27:28.858Z,94.61
2023-02-17T11:30:14.905Z,94.25
2023-02-17T11:32:42.946Z,94.33
2023-02-17T11:35:27.319Z,94.71
2023-02-17T11:38:12.739Z,95.33
2023-02-17T11:40:52.022Z,95.48
2023-02-17T11:43:20.587Z,95.70
2023-02-17T11:46:17.936Z,96.42
2023-02-17T11:49:21.766Z,96.41
2023-02-17T11:51:52.276Z,97.09
2023-02-17T11:54:44.581Z,97.24
2023-02-17T11:57:37.042Z,97.35
2023-02-17T12:00:13.688Z,97.03
2023-02-17T12:02:59.440Z,97.43
2023-02-17T12:05:39.956Z,97.79
2023-02-17T12:08:22.410Z,97.99
2023-02-17T12:11:32.361Z,98.00
2023-02-17T12:14:31.630Z,97.56
2023-02-17T12:17:22.251Z,97.13
2023-02-17T12:20:07.226Z,97.33
2023-02-17T12:23:13.457Z,97.17
2023-02-17T12:26:04.659Z,97.88
2023-02-17T12:28:49.594Z,98.42
2023-02-17T12:31:44.962Z,97.92
2023-02-17T12:34:29.908Z,98.09
2023-02-17T12:36:59.276Z,98.03
2023-02-17T12:39:34.559Z,98.63
2023-02-17T12:42:27.208Z,98.76
2023-02-17T12:45:03.299Z,98.58
2023-02-17T12:47:39.053Z,98.81
2023-02-17T12:50:28.780Z,99.07
2023-02-17T12:53:02.050Z,98.79
2023-02-17T12:55:48.807Z,98.53
2023-02-17T12:58:25.159Z,98.36
2023-02-17T13:01:19.047Z,98.87
2023-02-17T13:03:46.935Z,98.93
2023-02-17T13:06:30.338Z,99.00
2023-02-17T13:09:16.828Z,98.89
2023-02-17T13:11:45.686Z,99.07
2023-02-17T13:14:27.401Z,99.33
2023-02-17T13:16:55.873Z,99.27
2023-02-17T13:19:32.727Z,99.75
2023-02-17T13:22:05.713Z,99.75
2023-02-17T13:24:35.002Z,100.00
2023-02-17T13:27:31.291Z,100.00
2023-02-17T13:30:01.951Z,100.00
2023-02-17T13:32:34.376Z,100.00
2023-02-17T13:35:17.793Z,100.00
2023-02-17T13:37:46.843Z,100.00
2023-02-17T13:40:20.187Z,100.00
2023-02-17T13:43:07.944Z,100.00
2023-02-17T13:45:57.538Z,100.00
2023-02-17T13:48:28.634Z,100.00
2023-02-17T13:51:00.284Z,100.00
2023-02-17T13:53:37.921Z,100.00
2023-02-17T13:56:07.600Z,100.00
2023-02-17T13:58:38.762Z,100.00
2023-02-17T14:01:15.297Z,100.00
2023-02-17T14:03:46.695Z,100.00
2023-02-17T14:06:40.673Z,100.00
2023-02-17T14:09:24.693Z,100.00
2023-02-17T14:11:54.162Z,100.00
2023-02-17T14:14:26.238Z,100.00
2023-02-17T14:17:02.427Z,100.00
2023-02-17T14:19:42.154Z,100.00
2023-02-17T14:22:28.944Z,100.00
2023-02-17T14:25:07.016Z,100.00
2023-02-17T14:27:45.324Z,100.00
2023-02-17T14:30:29.899Z,100.00
2023-02-17T14:33:16.344Z,100.00
2023-02-17T14:35:53.641Z,100.00
2023-02-17T14:38:28.556Z,100.00
2023-02-17T14:40:56.952Z,100.00
2023-02-17T14:43:25.189Z,100.00
2023-02-17T14:45:53.603Z,100.00
2023-02-17T14:48:21.386Z,100.00
2023-02-17T14:50:49.584Z,100.00
2023-02-17T14:53:36.528Z,100.00
2023-02-17T14:56:12.618Z,100.00
2023-02-17T14:58:40.605Z,100.00
2023-02-17T15:01:14.939Z,100.00
2023-02-17T15:03:42.768Z,100.00
2023-02-17T15:06:16.689Z,100.00
2023-02-17T15:08:46.004Z,100.00
2023-02-17T15:11:24.485Z,100.00
2023-02-17T15:13:52.287Z,100.00
2023-02-17T15:16:20.275Z,100.00
2023-02-17T15:18:47.981Z,100.00
2023-02-17T15:21:26.934Z,100.00
2023-02-17T15:23:55.630Z,100.00
2023-02-17T15:26:23.780Z,100.00
2023-02-17T15:28:51.889Z,100.00
2023-02-17T15:31:21.602Z,100.00
2023-02-17T15:34:13.230Z,100.00
2023-02-17T15:36:41.187Z,100.00
2023-02-17T15:39:11.610Z,100.00
2023-02-17T15:41:40.939Z,100.00
2023-02-17T15:44:16.361Z,100.00
2023-02-17T15:46:46.205Z,100.00
2023-02-17T15:49:14.678Z,100.00
2023-02-17T15:51:42.917Z,100.00
2023-02-17T15:54:10.689Z,100.00
2023-02-17T15:56:49.612Z,100.00
2023-02-17T15:59:21.137Z,100.00
2023-02-17T16:01:50.773Z,100.00
2023-02-17T16:04:18.950Z,100.00
2023-02-17T16:06:46.976Z,100.00
2023-02-17T16:09:15.073Z,100.00
2023-02-17T16:12:01.655Z,100.00
2023-02-17T16:14:35.352Z,100.00
2023-02-17T16:17:04.361Z,100.00
2023-02-17T16:19:33.455Z,100.00
2023-02-17T16:22:01.835Z,100.00
2023-02-17T16:24:29.764Z,100.00
2023-02-17T16:26:57.794Z,100.00
2023-02-17T16:29:25.468Z,100.00
2023-02-17T16:31:54.376Z,100.00
2023-02-17T16:34:24.188Z,100.00
2023-02-17T16:36:56.649Z,100.00
2023-02-17T16:39:24.464Z,100.00
2023-02-17T16:41:52.541Z,100.00
2023-02-17T16:44:23.316Z,100.00
2023-02-17T16:46:53.634Z,100.00
2023-02-17T16:49:33.809Z,100.00
2023-02-17T16:52:05.008Z,100.00
2023-02-17T16:54:35.475Z,100.00
2023-02-17T16:57:03.873Z,100.00
2023-02-17T16:59:32.944Z,100.00
2023-02-17T17:02:01.578Z,100.00
2023-02-17T17:04:29.398Z,100.00
2023-02-17T17:06:57.419Z,100.00
2023-02-17T17:09:25.450Z,100.00
2023-02-17T17:11:53.722Z,100.00
2023-02-17T17:14:21.957Z,100.00
2023-02-17T17:16:58.591Z,100.00
2023-02-17T17:19:26.371Z,100.00
2023-02-17T17:21:54.371Z,100.00
2023-02-17T17:24:22.439Z,100.00
2023-02-17T17:26:51.593Z,100.00
2023-02-17T17:29:20.124Z,100.00
2023-02-17T17:31:48.738Z,100.00
2023-02-17T17:34:16.590Z,100.00
2023-02-17T17:36:46.884Z,100.00
2023-02-17T17:39:17.932Z,100.00
2023-02-17T17:41:46.446Z,100.00
2023-02-17T17:44:14.349Z,100.00
2023-02-17T17:46:42.799Z,100.00
2023-02-17T17:49:13.642Z,100.00
2023-02-17T17:51:41.854Z,100.00
2023-02-17T17:54:09.782Z,100.00
2023-02-17T17:56:42.970Z,100.00
2023-02-17T17:59:12.049Z,100.00
2023-02-17T18:01:40.103Z,100.00
2023-02-17T18:04:09.418Z,100.00
2023-02-17T18:06:48.745Z,100.00
2023-02-17T18:09:31.408Z,100.00
2023-02-17T18:12:04.533Z,100.00
2023-02-17T18:14:34.868Z,100.00
2023-02-17T18:17:03.195Z,100.00
2023-02-17T18:19:32.144Z,100.00
2023-02-17T18:22:00.187Z,100.00
2023-02-17T18:24:28.260Z,100.00
2023-02-17T18:26:56.336Z,100.00
2023-02-17T18:29:24.266Z,100.00
2023-02-17T18:31:52.723Z,100.00
2023-02-17T18:34:20.619Z,100.00
2023-02-17T18:36:48.634Z,100.00
2023-02-17T18:39:16.397Z,100.00
2023-02-17T18:41:44.410Z,100.00
2023-02-17T18:44:13.726Z,100.00
2023-02-17T18:46:42.551Z,100.00
2023-02-17T18:49:10.704Z,100.00
2023-02-17T18:51:38.724Z,100.00
2023-02-17T18:54:10.860Z,100.00
2023-02-17T18:56:39.092Z,100.00
2023-02-17T18:59:07.553Z,100.00
2023-02-17T19:01:39.564Z,100.00
2023-02-17T19:04:09.702Z,100.00
2023-02-17T19:06:37.760Z,100.00
2023-02-17T19:09:05.999Z,100.00
2023-02-17T19:11:34.194Z,100.00
2023-02-17T19:14:03.284Z,100.00
2023-02-17T19:16:32.606Z,100.00
2023-02-17T19:19:00.884Z,100.00
2023-02-17T19:21:29.024Z,100.00
2023-02-17T19:23:56.977Z,100.00
2023-02-17T19:26:25.049Z,100.00
2023-02-17T19:28:52.845Z,100.00
2023-02-17T19:31:21.315Z,100.00
2023-02-17T19:33:49.268Z,100.00
2023-02-17T19:36:20.393Z,100.00
2023-02-17T19:38:49.636Z,100.00
2023-02-17T19:41:18.703Z,100.00
2023-02-17T19:43:46.649Z,100.00
2023-02-17T19:46:21.009Z,100.00
2023-02-17T19:48:48.834Z,100.00
2023-02-17T19:51:16.912Z,100.00
2023-02-17T19:53:45.128Z,100.00
2023-02-17T19:56:25.819Z,100.00
2023-02-17T19:58:54.295Z,100.00
2023-02-17T20:01:25.218Z,100.00
2023-02-17T20:03:54.667Z,100.00
2023-02-17T20:06:31.297Z,100.00
2023-02-17T20:09:05.081Z,100.00
2023-02-17T20:11:33.515Z,100.00
2023-02-17T20:14:02.385Z,100.00
2023-02-17T20:16:31.171Z,100.00
2023-02-17T20:19:03.266Z,100.00
2023-02-17T20:21:33.629Z,100.00
2023-02-17T20:24:01.788Z,100.00
2023-02-17T20:26:38.271Z,100.00
2023-02-17T20:29:06.325Z,100.00
2023-02-17T20:31:39.275Z,100.00
2023-02-17T20:34:08.662Z,100.00
2023-02-17T20:36:36.607Z,100.00
2023-02-17T20:39:05.221Z,100.00
2023-02-17T20:41:33.145Z,100.00
2023-02-17T20:44:02.928Z,100.00
2023-02-17T20:46:31.873Z,100.00
2023-02-17T20:48:59.701Z,100.00
2023-02-17T20:51:27.678Z,100.00
2023-02-17T20:53:55.332Z,100.00
2023-02-17T20:56:24.935Z,100.00
2023-02-17T20:58:53.029Z,100.00
2023-02-17T21:01:21.129Z,100.00
2023-02-17T21:03:49.387Z,100.00
2023-02-17T21:06:24.509Z,100.00
2023-02-17T21:08:55.094Z,100.00
2023-02-17T21:11:23.595Z,100.00
2023-02-17T21:13:51.510Z,100.00
2023-02-17T21:16:23.687Z,100.00
2023-02-17T21:18:51.885Z,100.00
2023-02-17T21:21:20.548Z,100.00
2023-02-17T21:23:48.429Z,100.00
2023-02-17T21:26:17.373Z,100.00
2023-02-17T21:28:45.843Z,100.00
2023-02-17T21:31:15.067Z,100.00
2023-02-17T21:33:43.335Z,100.00
2023-02-17T21:36:14.327Z,100.00
2023-02-17T21:38:42.220Z,100.00
2023-02-17T21:41:16.049Z,100.00
2023-02-17T21:44:02.565Z,100.00
2023-02-17T21:46:30.609Z,100.00
2023-02-17T21:48:59.708Z,100.00
2023-02-17T21:51:29.106Z,100.00
2023-02-17T21:53:56.794Z,100.00
2023-02-17T21:56:25.770Z,100.00
2023-02-17T21:58:55.452Z,100.00
2023-02-17T22:01:25.181Z,100.00
2023-02-17T22:03:53.710Z,100.00
2023-02-17T22:06:23.260Z,100.00
2023-02-17T22:08:51.532Z,100.00
2023-02-17T22:11:22.375Z,100.00
2023-02-17T22:13:50.173Z,100.00
2023-02-17T22:16:18.172Z,100.00
2023-02-17T22:18:45.790Z,100.00
2023-02-17T22:21:14.637Z,100.00
2023-02-17T22:23:45.060Z,100.00
2023-02-17T22:26:20.166Z,100.00
2023-02-17T22:28:48.514Z,100.00
2023-02-17T22:31:19.359Z,100.00
2023-02-17T22:33:47.269Z,100.00
2023-02-17T22:36:20.018Z,100.00
2023-02-17T22:38:48.100Z,100.00
2023-02-17T22:41:18.896Z,100.00
2023-02-17T22:43:48.295Z,100.00
2023-02-17T22:46:18.674Z,100.00
2023-02-17T22:48:48.365Z,100.00
2023-02-17T22:51:22.115Z,100.00
2023-02-17T22:53:50.798Z,100.00
2023-02-17T22:56:19.379Z,100.00
2023-02-17T22:58:47.449Z,99.05
2023-02-17T23:01:22.767Z,98.03
2023-02-17T23:03:53.045Z,96.97
2023-02-17T23:06:28.560Z,96.49
2023-02-17T23:08:57.140Z,95.82
2023-02-17T23:11:49.796Z,95.57
2023-02-17T23:14:23.028Z,95.77
2023-02-17T23:16:52.191Z,96.12
2023-02-17T23:19:21.267Z,95.29
2023-02-17T23:21:52.414Z,94.98
2023-02-17T23:24:22.326Z,94.60
2023-02-17T23:26:50.982Z,93.10
2023-02-17T23:29:19.437Z,92.86
2023-02-17T23:31:47.593Z,91.84
2023-02-17T23:34:16.527Z,91.33
2023-02-17T23:36:46.303Z,91.57
2023-02-17T23:39:15.155Z,91.83
2023-02-17T23:41:43.718Z,92.36
2023-02-17T23:44:13.267Z,91.93
2023-02-17T23:46:43.212Z,91.53
2023-02-17T23:49:14.726Z,91.09
2023-02-17T23:51:43.291Z,89.03
2023-02-17T23:54:11.069Z,87.70
2023-02-17T23:56:39.348Z,87.18
2023-02-17T23:59:07.148Z,86.30
